sensor_id;sensor_type;location;lat;lon;timestamp;P1;durP1;ratioP1;P2;durP2;ratioP2
4377;SDS011;2203;53.686;9.994;2023-05-19T00:00:39;14.27;;;3.77;;
4377;SDS011;2203;53.686;9.994;2023-05-19T00:03:04;14.00;;;3.07;;
4377;SDS011;2203;53.686;9.994;2023-05-19T00:05:30;11.60;;;3.40;;
4377;SDS011;2203;53.686;9.994;2023-05-19T00:07:57;11.03;;;3.30;;
4377;SDS011;2203;53.686;9.994;2023-05-19T00:10:24;15.93;;;3.93;;
4377;SDS011;2203;53.686;9.994;2023-05-19T00:12:55;16.20;;;3.23;;
4377;SDS011;2203;53.686;9.994;2023-05-19T00:15:22;8.27;;;3.20;;
4377;SDS011;2203;53.686;9.994;2023-05-19T00:17:47;8.57;;;3.20;;
4377;SDS011;2203;53.686;9.994;2023-05-19T00:20:13;15.97;;;3.37;;
4377;SDS011;2203;53.686;9.994;2023-05-19T00:22:39;16.50;;;3.83;;
4377;SDS011;2203;53.686;9.994;2023-05-19T00:25:08;7.77;;;3.80;;
4377;SDS011;2203;53.686;9.994;2023-05-19T00:27:34;14.87;;;3.87;;
4377;SDS011;2203;53.686;9.994;2023-05-19T00:29:59;10.20;;;2.90;;
4377;SDS011;2203;53.686;9.994;2023-05-19T00:32:24;9.67;;;3.80;;
4377;SDS011;2203;53.686;9.994;2023-05-19T00:34:50;10.37;;;3.07;;
4377;SDS011;2203;53.686;9.994;2023-05-19T00:37:15;11.93;;;3.57;;
4377;SDS011;2203;53.686;9.994;2023-05-19T00:39:41;11.53;;;3.57;;
4377;SDS011;2203;53.686;9.994;2023-05-19T00:42:07;16.47;;;3.80;;
4377;SDS011;2203;53.686;9.994;2023-05-19T00:44:33;15.93;;;4.23;;
4377;SDS011;2203;53.686;9.994;2023-05-19T00:47:02;14.13;;;4.10;;
4377;SDS011;2203;53.686;9.994;2023-05-19T00:49:27;16.20;;;3.50;;
4377;SDS011;2203;53.686;9.994;2023-05-19T00:51:55;13.00;;;3.20;;
4377;SDS011;2203;53.686;9.994;2023-05-19T00:54:21;7.77;;;3.60;;
4377;SDS011;2203;53.686;9.994;2023-05-19T00:56:47;22.37;;;4.00;;
4377;SDS011;2203;53.686;9.994;2023-05-19T00:59:14;8.23;;;3.57;;
4377;SDS011;2203;53.686;9.994;2023-05-19T01:01:40;19.20;;;4.13;;
4377;SDS011;2203;53.686;9.994;2023-05-19T01:04:05;11.83;;;3.90;;
4377;SDS011;2203;53.686;9.994;2023-05-19T01:06:34;16.33;;;4.63;;
4377;SDS011;2203;53.686;9.994;2023-05-19T01:09:02;13.83;;;3.60;;
4377;SDS011;2203;53.686;9.994;2023-05-19T01:11:28;8.93;;;2.83;;
4377;SDS011;2203;53.686;9.994;2023-05-19T01:13:53;17.80;;;3.80;;
4377;SDS011;2203;53.686;9.994;2023-05-19T01:32:40;13.80;;;4.03;;
4377;SDS011;2203;53.686;9.994;2023-05-19T01:35:06;11.10;;;3.50;;
4377;SDS011;2203;53.686;9.994;2023-05-19T01:37:33;12.73;;;3.63;;
4377;SDS011;2203;53.686;9.994;2023-05-19T01:39:59;9.40;;;4.37;;
4377;SDS011;2203;53.686;9.994;2023-05-19T01:42:25;10.63;;;3.63;;
4377;SDS011;2203;53.686;9.994;2023-05-19T01:44:50;13.17;;;3.10;;
4377;SDS011;2203;53.686;9.994;2023-05-19T01:47:16;11.10;;;4.00;;
4377;SDS011;2203;53.686;9.994;2023-05-19T01:49:42;18.43;;;3.20;;
4377;SDS011;2203;53.686;9.994;2023-05-19T01:52:07;18.03;;;4.40;;
4377;SDS011;2203;53.686;9.994;2023-05-19T01:54:33;10.87;;;4.10;;
4377;SDS011;2203;53.686;9.994;2023-05-19T02:02:37;13.30;;;4.57;;
4377;SDS011;2203;53.686;9.994;2023-05-19T02:05:08;17.73;;;4.20;;
4377;SDS011;2203;53.686;9.994;2023-05-19T02:07:45;13.63;;;4.13;;
4377;SDS011;2203;53.686;9.994;2023-05-19T02:10:26;16.70;;;4.30;;
4377;SDS011;2203;53.686;9.994;2023-05-19T02:12:54;15.10;;;4.53;;
4377;SDS011;2203;53.686;9.994;2023-05-19T02:15:24;23.10;;;3.90;;
4377;SDS011;2203;53.686;9.994;2023-05-19T02:17:53;14.20;;;4.50;;
4377;SDS011;2203;53.686;9.994;2023-05-19T02:20:19;13.50;;;4.03;;
4377;SDS011;2203;53.686;9.994;2023-05-19T02:22:48;25.10;;;4.37;;
4377;SDS011;2203;53.686;9.994;2023-05-19T02:25:14;14.63;;;4.17;;
4377;SDS011;2203;53.686;9.994;2023-05-19T02:27:39;19.90;;;4.30;;
4377;SDS011;2203;53.686;9.994;2023-05-19T02:30:05;35.47;;;5.13;;
4377;SDS011;2203;53.686;9.994;2023-05-19T02:32:32;20.97;;;4.43;;
4377;SDS011;2203;53.686;9.994;2023-05-19T02:34:58;18.80;;;4.77;;
4377;SDS011;2203;53.686;9.994;2023-05-19T02:37:24;13.17;;;4.53;;
4377;SDS011;2203;53.686;9.994;2023-05-19T02:39:52;15.53;;;4.93;;
4377;SDS011;2203;53.686;9.994;2023-05-19T02:42:18;16.20;;;4.50;;
4377;SDS011;2203;53.686;9.994;2023-05-19T02:44:44;14.57;;;4.27;;
4377;SDS011;2203;53.686;9.994;2023-05-19T02:47:10;24.33;;;5.10;;
4377;SDS011;2203;53.686;9.994;2023-05-19T02:49:35;22.67;;;4.70;;
4377;SDS011;2203;53.686;9.994;2023-05-19T02:52:01;12.47;;;4.40;;
4377;SDS011;2203;53.686;9.994;2023-05-19T02:54:30;13.20;;;4.13;;
4377;SDS011;2203;53.686;9.994;2023-05-19T02:56:56;14.23;;;4.50;;
4377;SDS011;2203;53.686;9.994;2023-05-19T02:59:22;14.63;;;4.97;;
4377;SDS011;2203;53.686;9.994;2023-05-19T03:01:48;12.20;;;4.80;;
4377;SDS011;2203;53.686;9.994;2023-05-19T03:04:14;16.90;;;4.70;;
4377;SDS011;2203;53.686;9.994;2023-05-19T03:06:40;11.73;;;4.10;;
4377;SDS011;2203;53.686;9.994;2023-05-19T03:09:06;18.70;;;5.27;;
4377;SDS011;2203;53.686;9.994;2023-05-19T03:11:32;9.33;;;4.37;;
4377;SDS011;2203;53.686;9.994;2023-05-19T03:13:57;15.23;;;4.00;;
4377;SDS011;2203;53.686;9.994;2023-05-19T03:16:23;20.43;;;5.27;;
4377;SDS011;2203;53.686;9.994;2023-05-19T03:18:49;14.20;;;5.33;;
4377;SDS011;2203;53.686;9.994;2023-05-19T03:21:14;15.90;;;4.73;;
4377;SDS011;2203;53.686;9.994;2023-05-19T03:23:40;14.83;;;4.50;;
4377;SDS011;2203;53.686;9.994;2023-05-19T03:26:05;9.97;;;4.27;;
4377;SDS011;2203;53.686;9.994;2023-05-19T03:28:31;15.00;;;4.67;;
4377;SDS011;2203;53.686;9.994;2023-05-19T03:30:56;25.10;;;6.70;;
4377;SDS011;2203;53.686;9.994;2023-05-19T03:33:22;10.07;;;4.37;;
4377;SDS011;2203;53.686;9.994;2023-05-19T03:35:47;14.40;;;4.87;;
4377;SDS011;2203;53.686;9.994;2023-05-19T03:38:13;15.83;;;5.30;;
4377;SDS011;2203;53.686;9.994;2023-05-19T03:40:39;14.53;;;4.80;;
4377;SDS011;2203;53.686;9.994;2023-05-19T03:43:05;21.93;;;5.43;;
4377;SDS011;2203;53.686;9.994;2023-05-19T03:45:31;15.10;;;5.43;;
4377;SDS011;2203;53.686;9.994;2023-05-19T03:47:57;20.70;;;6.80;;
4377;SDS011;2203;53.686;9.994;2023-05-19T03:50:22;11.77;;;4.97;;
4377;SDS011;2203;53.686;9.994;2023-05-19T03:52:48;23.03;;;6.30;;
4377;SDS011;2203;53.686;9.994;2023-05-19T03:55:13;23.50;;;4.80;;
4377;SDS011;2203;53.686;9.994;2023-05-19T03:57:39;13.43;;;4.50;;
4377;SDS011;2203;53.686;9.994;2023-05-19T04:00:05;11.80;;;4.50;;
4377;SDS011;2203;53.686;9.994;2023-05-19T04:02:31;13.87;;;4.87;;
4377;SDS011;2203;53.686;9.994;2023-05-19T04:04:57;19.67;;;5.57;;
4377;SDS011;2203;53.686;9.994;2023-05-19T04:07:22;12.97;;;4.60;;
4377;SDS011;2203;53.686;9.994;2023-05-19T04:09:48;17.73;;;5.23;;
4377;SDS011;2203;53.686;9.994;2023-05-19T04:12:14;16.90;;;5.13;;
4377;SDS011;2203;53.686;9.994;2023-05-19T04:14:40;8.13;;;4.00;;
4377;SDS011;2203;53.686;9.994;2023-05-19T04:17:05;14.33;;;4.80;;
4377;SDS011;2203;53.686;9.994;2023-05-19T04:19:31;14.57;;;4.83;;
4377;SDS011;2203;53.686;9.994;2023-05-19T04:21:56;13.00;;;5.00;;
4377;SDS011;2203;53.686;9.994;2023-05-19T04:24:21;18.93;;;4.67;;
4377;SDS011;2203;53.686;9.994;2023-05-19T04:26:47;19.97;;;4.67;;
4377;SDS011;2203;53.686;9.994;2023-05-19T04:29:12;9.20;;;4.73;;
4377;SDS011;2203;53.686;9.994;2023-05-19T04:31:42;30.77;;;5.50;;
4377;SDS011;2203;53.686;9.994;2023-05-19T04:34:10;25.87;;;5.13;;
4377;SDS011;2203;53.686;9.994;2023-05-19T04:36:35;18.00;;;5.83;;
4377;SDS011;2203;53.686;9.994;2023-05-19T04:39:02;9.47;;;4.33;;
4377;SDS011;2203;53.686;9.994;2023-05-19T04:41:31;17.30;;;4.73;;
4377;SDS011;2203;53.686;9.994;2023-05-19T04:43:57;12.67;;;4.77;;
4377;SDS011;2203;53.686;9.994;2023-05-19T04:46:23;21.90;;;4.87;;
4377;SDS011;2203;53.686;9.994;2023-05-19T04:48:49;13.50;;;4.63;;
4377;SDS011;2203;53.686;9.994;2023-05-19T04:51:15;10.23;;;4.17;;
4377;SDS011;2203;53.686;9.994;2023-05-19T04:53:41;10.37;;;4.10;;
4377;SDS011;2203;53.686;9.994;2023-05-19T04:56:08;15.50;;;4.83;;
4377;SDS011;2203;53.686;9.994;2023-05-19T04:58:33;16.33;;;4.70;;
4377;SDS011;2203;53.686;9.994;2023-05-19T05:00:59;12.43;;;4.53;;
4377;SDS011;2203;53.686;9.994;2023-05-19T05:03:24;21.53;;;5.53;;
4377;SDS011;2203;53.686;9.994;2023-05-19T05:05:50;20.57;;;5.10;;
4377;SDS011;2203;53.686;9.994;2023-05-19T05:08:16;13.50;;;3.80;;
4377;SDS011;2203;53.686;9.994;2023-05-19T05:10:48;11.87;;;4.23;;
4377;SDS011;2203;53.686;9.994;2023-05-19T05:13:15;7.60;;;3.27;;
4377;SDS011;2203;53.686;9.994;2023-05-19T05:15:41;11.50;;;4.33;;
4377;SDS011;2203;53.686;9.994;2023-05-19T05:18:06;17.90;;;3.83;;
4377;SDS011;2203;53.686;9.994;2023-05-19T05:20:32;23.87;;;5.50;;
4377;SDS011;2203;53.686;9.994;2023-05-19T05:22:58;26.30;;;4.33;;
4377;SDS011;2203;53.686;9.994;2023-05-19T05:25:24;12.03;;;3.60;;
4377;SDS011;2203;53.686;9.994;2023-05-19T05:27:49;17.73;;;3.90;;
4377;SDS011;2203;53.686;9.994;2023-05-19T05:30:15;19.00;;;4.37;;
4377;SDS011;2203;53.686;9.994;2023-05-19T05:32:40;13.23;;;4.10;;
4377;SDS011;2203;53.686;9.994;2023-05-19T05:35:06;21.43;;;4.43;;
4377;SDS011;2203;53.686;9.994;2023-05-19T05:37:32;10.50;;;3.80;;
4377;SDS011;2203;53.686;9.994;2023-05-19T05:39:57;14.67;;;3.77;;
4377;SDS011;2203;53.686;9.994;2023-05-19T05:42:22;14.30;;;4.63;;
4377;SDS011;2203;53.686;9.994;2023-05-19T05:44:48;12.23;;;3.70;;
4377;SDS011;2203;53.686;9.994;2023-05-19T05:47:13;7.43;;;3.20;;
4377;SDS011;2203;53.686;9.994;2023-05-19T05:49:39;15.10;;;4.70;;
4377;SDS011;2203;53.686;9.994;2023-05-19T05:52:06;18.87;;;4.00;;
4377;SDS011;2203;53.686;9.994;2023-05-19T05:54:33;15.63;;;3.97;;
4377;SDS011;2203;53.686;9.994;2023-05-19T05:56:59;15.53;;;4.10;;
4377;SDS011;2203;53.686;9.994;2023-05-19T05:59:24;22.33;;;5.07;;
4377;SDS011;2203;53.686;9.994;2023-05-19T06:01:50;10.67;;;3.30;;
4377;SDS011;2203;53.686;9.994;2023-05-19T06:04:15;15.53;;;3.97;;
4377;SDS011;2203;53.686;9.994;2023-05-19T06:06:40;24.30;;;6.93;;
4377;SDS011;2203;53.686;9.994;2023-05-19T06:09:06;13.90;;;3.73;;
4377;SDS011;2203;53.686;9.994;2023-05-19T06:11:31;16.40;;;4.43;;
4377;SDS011;2203;53.686;9.994;2023-05-19T06:13:57;13.03;;;3.90;;
4377;SDS011;2203;53.686;9.994;2023-05-19T06:16:22;19.47;;;4.57;;
4377;SDS011;2203;53.686;9.994;2023-05-19T06:18:48;16.20;;;3.83;;
4377;SDS011;2203;53.686;9.994;2023-05-19T06:21:13;13.40;;;3.80;;
4377;SDS011;2203;53.686;9.994;2023-05-19T06:23:39;11.97;;;3.93;;
4377;SDS011;2203;53.686;9.994;2023-05-19T06:26:05;17.70;;;3.30;;
4377;SDS011;2203;53.686;9.994;2023-05-19T06:28:30;15.20;;;4.00;;
4377;SDS011;2203;53.686;9.994;2023-05-19T06:30:55;8.83;;;3.30;;
4377;SDS011;2203;53.686;9.994;2023-05-19T06:33:21;8.20;;;3.30;;
4377;SDS011;2203;53.686;9.994;2023-05-19T06:35:46;17.40;;;3.43;;
4377;SDS011;2203;53.686;9.994;2023-05-19T06:38:12;8.63;;;3.30;;
4377;SDS011;2203;53.686;9.994;2023-05-19T06:40:37;18.83;;;3.47;;
4377;SDS011;2203;53.686;9.994;2023-05-19T06:43:03;14.33;;;3.10;;
4377;SDS011;2203;53.686;9.994;2023-05-19T06:45:28;10.30;;;2.80;;
4377;SDS011;2203;53.686;9.994;2023-05-19T06:47:54;19.40;;;3.53;;
4377;SDS011;2203;53.686;9.994;2023-05-19T06:50:22;11.30;;;3.80;;
4377;SDS011;2203;53.686;9.994;2023-05-19T06:52:47;18.03;;;3.57;;
4377;SDS011;2203;53.686;9.994;2023-05-19T06:55:13;13.47;;;3.73;;
4377;SDS011;2203;53.686;9.994;2023-05-19T06:57:38;15.13;;;3.50;;
4377;SDS011;2203;53.686;9.994;2023-05-19T07:00:04;8.37;;;2.50;;
4377;SDS011;2203;53.686;9.994;2023-05-19T07:02:33;16.77;;;3.50;;
4377;SDS011;2203;53.686;9.994;2023-05-19T07:04:58;11.63;;;3.13;;
4377;SDS011;2203;53.686;9.994;2023-05-19T07:07:23;11.13;;;3.07;;
4377;SDS011;2203;53.686;9.994;2023-05-19T07:09:50;13.00;;;3.63;;
4377;SDS011;2203;53.686;9.994;2023-05-19T07:12:16;19.80;;;3.20;;
4377;SDS011;2203;53.686;9.994;2023-05-19T07:14:41;19.57;;;3.60;;
4377;SDS011;2203;53.686;9.994;2023-05-19T07:17:07;20.27;;;3.23;;
4377;SDS011;2203;53.686;9.994;2023-05-19T07:19:32;12.57;;;2.73;;
4377;SDS011;2203;53.686;9.994;2023-05-19T07:21:57;15.90;;;2.93;;
4377;SDS011;2203;53.686;9.994;2023-05-19T07:24:23;13.20;;;3.10;;
4377;SDS011;2203;53.686;9.994;2023-05-19T07:26:49;17.97;;;4.10;;
4377;SDS011;2203;53.686;9.994;2023-05-19T07:29:14;17.00;;;3.67;;
4377;SDS011;2203;53.686;9.994;2023-05-19T07:31:40;10.27;;;2.80;;
4377;SDS011;2203;53.686;9.994;2023-05-19T07:34:05;12.43;;;2.70;;
4377;SDS011;2203;53.686;9.994;2023-05-19T07:36:31;20.03;;;3.10;;
4377;SDS011;2203;53.686;9.994;2023-05-19T07:38:56;12.83;;;2.57;;
4377;SDS011;2203;53.686;9.994;2023-05-19T07:41:21;13.30;;;2.90;;
4377;SDS011;2203;53.686;9.994;2023-05-19T07:43:47;11.47;;;3.00;;
4377;SDS011;2203;53.686;9.994;2023-05-19T07:46:13;17.30;;;3.77;;
4377;SDS011;2203;53.686;9.994;2023-05-19T07:48:38;19.40;;;2.63;;
4377;SDS011;2203;53.686;9.994;2023-05-19T07:51:04;15.53;;;3.20;;
4377;SDS011;2203;53.686;9.994;2023-05-19T07:53:29;14.60;;;2.80;;
4377;SDS011;2203;53.686;9.994;2023-05-19T07:55:55;10.77;;;2.80;;
4377;SDS011;2203;53.686;9.994;2023-05-19T07:58:21;7.83;;;2.60;;
4377;SDS011;2203;53.686;9.994;2023-05-19T08:00:46;20.30;;;3.87;;
4377;SDS011;2203;53.686;9.994;2023-05-19T08:03:12;15.97;;;3.10;;
4377;SDS011;2203;53.686;9.994;2023-05-19T08:05:37;11.33;;;3.00;;
4377;SDS011;2203;53.686;9.994;2023-05-19T08:08:03;9.57;;;2.93;;
4377;SDS011;2203;53.686;9.994;2023-05-19T08:10:28;15.33;;;3.17;;
4377;SDS011;2203;53.686;9.994;2023-05-19T08:12:54;10.07;;;2.90;;
4377;SDS011;2203;53.686;9.994;2023-05-19T08:15:19;18.43;;;2.50;;
4377;SDS011;2203;53.686;9.994;2023-05-19T08:17:45;12.40;;;2.53;;
4377;SDS011;2203;53.686;9.994;2023-05-19T08:20:11;9.33;;;2.30;;
4377;SDS011;2203;53.686;9.994;2023-05-19T08:22:37;8.30;;;3.23;;
4377;SDS011;2203;53.686;9.994;2023-05-19T08:25:02;14.27;;;2.40;;
4377;SDS011;2203;53.686;9.994;2023-05-19T08:27:29;11.53;;;2.83;;
4377;SDS011;2203;53.686;9.994;2023-05-19T08:29:54;18.37;;;3.10;;
4377;SDS011;2203;53.686;9.994;2023-05-19T08:32:21;16.70;;;3.27;;
4377;SDS011;2203;53.686;9.994;2023-05-19T08:34:47;12.10;;;2.80;;
4377;SDS011;2203;53.686;9.994;2023-05-19T08:37:13;9.77;;;2.67;;
4377;SDS011;2203;53.686;9.994;2023-05-19T08:39:38;15.40;;;2.77;;
4377;SDS011;2203;53.686;9.994;2023-05-19T08:42:04;21.33;;;4.10;;
4377;SDS011;2203;53.686;9.994;2023-05-19T08:44:31;18.43;;;3.60;;
4377;SDS011;2203;53.686;9.994;2023-05-19T08:46:57;8.50;;;2.47;;
4377;SDS011;2203;53.686;9.994;2023-05-19T08:49:26;15.67;;;2.87;;
4377;SDS011;2203;53.686;9.994;2023-05-19T08:51:58;6.93;;;2.57;;
4377;SDS011;2203;53.686;9.994;2023-05-19T08:54:28;11.70;;;3.17;;
4377;SDS011;2203;53.686;9.994;2023-05-19T08:56:58;18.23;;;3.57;;
4377;SDS011;2203;53.686;9.994;2023-05-19T08:59:23;15.00;;;2.60;;
4377;SDS011;2203;53.686;9.994;2023-05-19T09:01:49;12.33;;;2.90;;
4377;SDS011;2203;53.686;9.994;2023-05-19T09:04:15;11.83;;;2.43;;
4377;SDS011;2203;53.686;9.994;2023-05-19T09:06:41;15.60;;;2.90;;
4377;SDS011;2203;53.686;9.994;2023-05-19T09:09:08;13.90;;;3.50;;
4377;SDS011;2203;53.686;9.994;2023-05-19T09:11:34;11.40;;;4.93;;
4377;SDS011;2203;53.686;9.994;2023-05-19T09:14:05;20.70;;;5.17;;
4377;SDS011;2203;53.686;9.994;2023-05-19T09:16:31;11.60;;;3.70;;
4377;SDS011;2203;53.686;9.994;2023-05-19T09:18:57;25.33;;;4.57;;
4377;SDS011;2203;53.686;9.994;2023-05-19T09:21:31;15.70;;;3.30;;
4377;SDS011;2203;53.686;9.994;2023-05-19T09:23:57;11.67;;;2.93;;
4377;SDS011;2203;53.686;9.994;2023-05-19T09:26:23;12.80;;;3.37;;
4377;SDS011;2203;53.686;9.994;2023-05-19T09:28:49;15.70;;;3.80;;
4377;SDS011;2203;53.686;9.994;2023-05-19T09:31:14;18.33;;;3.57;;
4377;SDS011;2203;53.686;9.994;2023-05-19T09:33:40;14.70;;;3.30;;
4377;SDS011;2203;53.686;9.994;2023-05-19T09:36:12;11.27;;;3.00;;
4377;SDS011;2203;53.686;9.994;2023-05-19T09:38:38;10.73;;;3.13;;
4377;SDS011;2203;53.686;9.994;2023-05-19T09:41:04;11.93;;;3.00;;
4377;SDS011;2203;53.686;9.994;2023-05-19T09:43:31;17.00;;;4.20;;
4377;SDS011;2203;53.686;9.994;2023-05-19T09:46:07;9.53;;;2.70;;
4377;SDS011;2203;53.686;9.994;2023-05-19T09:48:35;17.13;;;3.80;;
4377;SDS011;2203;53.686;9.994;2023-05-19T09:51:00;11.67;;;3.40;;
4377;SDS011;2203;53.686;9.994;2023-05-19T09:53:27;15.10;;;3.90;;
4377;SDS011;2203;53.686;9.994;2023-05-19T09:55:54;15.60;;;3.80;;
4377;SDS011;2203;53.686;9.994;2023-05-19T09:58:23;19.60;;;3.70;;
4377;SDS011;2203;53.686;9.994;2023-05-19T10:00:48;11.53;;;3.53;;
4377;SDS011;2203;53.686;9.994;2023-05-19T10:03:14;17.03;;;3.90;;
4377;SDS011;2203;53.686;9.994;2023-05-19T10:05:41;7.03;;;2.70;;
4377;SDS011;2203;53.686;9.994;2023-05-19T10:08:07;19.73;;;3.07;;
4377;SDS011;2203;53.686;9.994;2023-05-19T10:10:34;21.63;;;3.10;;
4377;SDS011;2203;53.686;9.994;2023-05-19T10:13:00;23.07;;;3.00;;
4377;SDS011;2203;53.686;9.994;2023-05-19T10:15:27;10.10;;;2.87;;
4377;SDS011;2203;53.686;9.994;2023-05-19T10:17:53;16.50;;;3.50;;
4377;SDS011;2203;53.686;9.994;2023-05-19T10:20:20;16.53;;;2.90;;
4377;SDS011;2203;53.686;9.994;2023-05-19T10:22:46;19.27;;;3.13;;
4377;SDS011;2203;53.686;9.994;2023-05-19T10:25:12;18.60;;;3.10;;
4377;SDS011;2203;53.686;9.994;2023-05-19T10:27:43;10.80;;;3.00;;
4377;SDS011;2203;53.686;9.994;2023-05-19T10:30:19;10.97;;;3.40;;
4377;SDS011;2203;53.686;9.994;2023-05-19T10:32:49;14.37;;;3.07;;
4377;SDS011;2203;53.686;9.994;2023-05-19T10:46:10;19.87;;;4.67;;
4377;SDS011;2203;53.686;9.994;2023-05-19T10:48:36;16.77;;;3.47;;
4377;SDS011;2203;53.686;9.994;2023-05-19T10:51:01;11.50;;;2.40;;
4377;SDS011;2203;53.686;9.994;2023-05-19T10:53:31;12.07;;;2.97;;
4377;SDS011;2203;53.686;9.994;2023-05-19T10:55:57;9.03;;;2.30;;
4377;SDS011;2203;53.686;9.994;2023-05-19T10:58:49;13.47;;;2.10;;
4377;SDS011;2203;53.686;9.994;2023-05-19T11:01:15;8.93;;;2.40;;
4377;SDS011;2203;53.686;9.994;2023-05-19T11:06:25;6.47;;;1.93;;
4377;SDS011;2203;53.686;9.994;2023-05-19T11:08:54;8.93;;;3.07;;
4377;SDS011;2203;53.686;9.994;2023-05-19T11:11:21;11.03;;;2.43;;
4377;SDS011;2203;53.686;9.994;2023-05-19T11:13:49;8.80;;;2.43;;
4377;SDS011;2203;53.686;9.994;2023-05-19T11:16:19;12.00;;;2.53;;
4377;SDS011;2203;53.686;9.994;2023-05-19T11:18:54;15.27;;;1.90;;
4377;SDS011;2203;53.686;9.994;2023-05-19T11:21:20;31.73;;;3.63;;
4377;SDS011;2203;53.686;9.994;2023-05-19T11:23:46;12.23;;;2.10;;
4377;SDS011;2203;53.686;9.994;2023-05-19T11:26:12;25.10;;;3.37;;
4377;SDS011;2203;53.686;9.994;2023-05-19T11:28:37;14.90;;;2.87;;
4377;SDS011;2203;53.686;9.994;2023-05-19T11:31:03;13.80;;;2.80;;
4377;SDS011;2203;53.686;9.994;2023-05-19T11:33:32;12.40;;;2.40;;
4377;SDS011;2203;53.686;9.994;2023-05-19T11:35:57;10.33;;;2.30;;
4377;SDS011;2203;53.686;9.994;2023-05-19T11:38:23;8.83;;;2.43;;
4377;SDS011;2203;53.686;9.994;2023-05-19T11:40:51;9.50;;;2.60;;
4377;SDS011;2203;53.686;9.994;2023-05-19T11:43:17;10.77;;;2.30;;
4377;SDS011;2203;53.686;9.994;2023-05-19T11:45:43;15.83;;;2.20;;
4377;SDS011;2203;53.686;9.994;2023-05-19T11:48:12;7.70;;;1.97;;
4377;SDS011;2203;53.686;9.994;2023-05-19T11:50:39;6.80;;;2.17;;
4377;SDS011;2203;53.686;9.994;2023-05-19T11:53:05;14.70;;;2.23;;
4377;SDS011;2203;53.686;9.994;2023-05-19T11:55:31;14.30;;;2.03;;
4377;SDS011;2203;53.686;9.994;2023-05-19T12:00:26;9.03;;;2.20;;
4377;SDS011;2203;53.686;9.994;2023-05-19T12:02:52;8.17;;;1.70;;
4377;SDS011;2203;53.686;9.994;2023-05-19T12:05:18;9.33;;;2.07;;
4377;SDS011;2203;53.686;9.994;2023-05-19T12:07:45;15.63;;;2.90;;
4377;SDS011;2203;53.686;9.994;2023-05-19T12:10:11;7.20;;;2.00;;
4377;SDS011;2203;53.686;9.994;2023-05-19T12:12:36;13.40;;;2.70;;
4377;SDS011;2203;53.686;9.994;2023-05-19T12:15:02;8.40;;;2.10;;
4377;SDS011;2203;53.686;9.994;2023-05-19T12:17:30;8.73;;;2.00;;
4377;SDS011;2203;53.686;9.994;2023-05-19T12:19:56;9.00;;;2.17;;
4377;SDS011;2203;53.686;9.994;2023-05-19T12:22:22;9.07;;;1.87;;
4377;SDS011;2203;53.686;9.994;2023-05-19T12:24:47;8.30;;;2.00;;
4377;SDS011;2203;53.686;9.994;2023-05-19T12:27:17;11.73;;;2.37;;
4377;SDS011;2203;53.686;9.994;2023-05-19T12:29:48;8.43;;;2.33;;
4377;SDS011;2203;53.686;9.994;2023-05-19T12:32:14;19.77;;;2.37;;
4377;SDS011;2203;53.686;9.994;2023-05-19T12:34:40;5.07;;;2.13;;
4377;SDS011;2203;53.686;9.994;2023-05-19T12:37:05;7.33;;;1.87;;
4377;SDS011;2203;53.686;9.994;2023-05-19T12:39:31;5.80;;;2.07;;
4377;SDS011;2203;53.686;9.994;2023-05-19T12:42:06;10.20;;;2.00;;
4377;SDS011;2203;53.686;9.994;2023-05-19T12:44:35;7.90;;;1.73;;
4377;SDS011;2203;53.686;9.994;2023-05-19T12:47:03;8.83;;;2.20;;
4377;SDS011;2203;53.686;9.994;2023-05-19T12:49:32;10.63;;;2.10;;
4377;SDS011;2203;53.686;9.994;2023-05-19T12:51:59;7.67;;;1.87;;
4377;SDS011;2203;53.686;9.994;2023-05-19T12:54:27;5.57;;;1.73;;
4377;SDS011;2203;53.686;9.994;2023-05-19T12:56:56;7.20;;;2.27;;
4377;SDS011;2203;53.686;9.994;2023-05-19T12:59:24;5.73;;;1.97;;
4377;SDS011;2203;53.686;9.994;2023-05-19T13:01:56;8.10;;;2.00;;
4377;SDS011;2203;53.686;9.994;2023-05-19T13:04:23;6.63;;;1.53;;
4377;SDS011;2203;53.686;9.994;2023-05-19T13:06:49;6.80;;;1.63;;
4377;SDS011;2203;53.686;9.994;2023-05-19T13:09:14;5.70;;;1.60;;
4377;SDS011;2203;53.686;9.994;2023-05-19T13:11:41;4.30;;;1.57;;
4377;SDS011;2203;53.686;9.994;2023-05-19T13:14:08;9.13;;;1.90;;
4377;SDS011;2203;53.686;9.994;2023-05-19T13:16:33;3.97;;;1.50;;
4377;SDS011;2203;53.686;9.994;2023-05-19T13:18:59;2.90;;;1.63;;
4377;SDS011;2203;53.686;9.994;2023-05-19T13:21:24;6.80;;;2.40;;
4377;SDS011;2203;53.686;9.994;2023-05-19T13:23:50;3.03;;;1.70;;
4377;SDS011;2203;53.686;9.994;2023-05-19T13:26:16;7.90;;;1.87;;
4377;SDS011;2203;53.686;9.994;2023-05-19T13:28:42;4.37;;;1.50;;
4377;SDS011;2203;53.686;9.994;2023-05-19T13:31:07;11.60;;;2.63;;
4377;SDS011;2203;53.686;9.994;2023-05-19T13:33:33;5.60;;;1.87;;
4377;SDS011;2203;53.686;9.994;2023-05-19T13:35:58;5.17;;;1.57;;
4377;SDS011;2203;53.686;9.994;2023-05-19T13:38:23;10.67;;;1.87;;
4377;SDS011;2203;53.686;9.994;2023-05-19T13:40:49;6.10;;;1.83;;
4377;SDS011;2203;53.686;9.994;2023-05-19T13:43:14;3.17;;;1.80;;
4377;SDS011;2203;53.686;9.994;2023-05-19T13:45:40;13.87;;;1.90;;
4377;SDS011;2203;53.686;9.994;2023-05-19T13:48:07;5.90;;;1.77;;
4377;SDS011;2203;53.686;9.994;2023-05-19T13:50:32;10.23;;;1.93;;
4377;SDS011;2203;53.686;9.994;2023-05-19T13:52:58;3.17;;;1.30;;
4377;SDS011;2203;53.686;9.994;2023-05-19T13:55:23;6.70;;;1.63;;
4377;SDS011;2203;53.686;9.994;2023-05-19T13:57:51;5.93;;;1.70;;
4377;SDS011;2203;53.686;9.994;2023-05-19T14:00:17;8.50;;;1.53;;
4377;SDS011;2203;53.686;9.994;2023-05-19T14:02:43;8.53;;;1.97;;
4377;SDS011;2203;53.686;9.994;2023-05-19T14:05:08;8.13;;;1.70;;
4377;SDS011;2203;53.686;9.994;2023-05-19T14:07:34;4.90;;;1.77;;
4377;SDS011;2203;53.686;9.994;2023-05-19T14:10:00;5.93;;;1.83;;
4377;SDS011;2203;53.686;9.994;2023-05-19T14:12:26;3.27;;;1.50;;
4377;SDS011;2203;53.686;9.994;2023-05-19T14:14:51;4.07;;;1.60;;
4377;SDS011;2203;53.686;9.994;2023-05-19T14:17:17;29.63;;;9.60;;
4377;SDS011;2203;53.686;9.994;2023-05-19T14:19:42;18.90;;;7.43;;
4377;SDS011;2203;53.686;9.994;2023-05-19T14:22:08;9.37;;;3.80;;
4377;SDS011;2203;53.686;9.994;2023-05-19T14:24:33;9.93;;;2.30;;
4377;SDS011;2203;53.686;9.994;2023-05-19T14:26:59;10.57;;;2.80;;
4377;SDS011;2203;53.686;9.994;2023-05-19T14:29:25;4.70;;;1.70;;
4377;SDS011;2203;53.686;9.994;2023-05-19T14:31:50;13.40;;;2.10;;
4377;SDS011;2203;53.686;9.994;2023-05-19T14:34:16;8.60;;;2.20;;
4377;SDS011;2203;53.686;9.994;2023-05-19T14:36:44;2.90;;;1.43;;
4377;SDS011;2203;53.686;9.994;2023-05-19T14:39:10;15.70;;;5.57;;
4377;SDS011;2203;53.686;9.994;2023-05-19T14:41:36;6.87;;;2.80;;
4377;SDS011;2203;53.686;9.994;2023-05-19T14:44:01;8.90;;;2.50;;
4377;SDS011;2203;53.686;9.994;2023-05-19T14:46:27;11.57;;;4.03;;
4377;SDS011;2203;53.686;9.994;2023-05-19T14:48:52;5.03;;;1.50;;
4377;SDS011;2203;53.686;9.994;2023-05-19T14:51:18;4.70;;;1.60;;
4377;SDS011;2203;53.686;9.994;2023-05-19T14:53:43;2.77;;;1.37;;
4377;SDS011;2203;53.686;9.994;2023-05-19T14:56:09;12.50;;;3.00;;
4377;SDS011;2203;53.686;9.994;2023-05-19T14:58:34;4.30;;;2.10;;
4377;SDS011;2203;53.686;9.994;2023-05-19T15:01:00;6.80;;;1.40;;
4377;SDS011;2203;53.686;9.994;2023-05-19T15:03:25;7.30;;;2.10;;
4377;SDS011;2203;53.686;9.994;2023-05-19T15:05:50;6.10;;;1.63;;
4377;SDS011;2203;53.686;9.994;2023-05-19T15:08:16;8.67;;;1.93;;
4377;SDS011;2203;53.686;9.994;2023-05-19T15:10:41;5.30;;;2.20;;
4377;SDS011;2203;53.686;9.994;2023-05-19T15:13:07;8.30;;;1.80;;
4377;SDS011;2203;53.686;9.994;2023-05-19T15:15:32;4.60;;;1.30;;
4377;SDS011;2203;53.686;9.994;2023-05-19T15:17:57;15.50;;;2.23;;
4377;SDS011;2203;53.686;9.994;2023-05-19T15:20:23;5.63;;;1.50;;
4377;SDS011;2203;53.686;9.994;2023-05-19T15:22:48;7.20;;;1.90;;
4377;SDS011;2203;53.686;9.994;2023-05-19T15:25:14;9.20;;;1.73;;
4377;SDS011;2203;53.686;9.994;2023-05-19T15:27:39;7.20;;;1.90;;
4377;SDS011;2203;53.686;9.994;2023-05-19T15:30:05;3.33;;;1.40;;
4377;SDS011;2203;53.686;9.994;2023-05-19T15:32:30;2.03;;;1.47;;
4377;SDS011;2203;53.686;9.994;2023-05-19T15:34:56;9.47;;;2.10;;
4377;SDS011;2203;53.686;9.994;2023-05-19T15:37:21;4.30;;;1.97;;